In Rescue
 
Open Full Screen Window  High Contrast Mode
Wind Gusting 19 knots
11
May 19, 2019 11:32 AM CDT
Present Weather: Light Rain
Weather Information
Wind Direction
  040 °
Wind Speed
  11 kt (13 mph)
Wind Gust
  19 kt (22 mph)
Altimeter
29.85 in
Visibility
4 SM
Temperature
01° C
34° F
Dewpoint
00° C
32° F
Humidity
93%
1hr Rain Fall
00.02 in.
24hr Rain Fall
00.14 in.
Sky Condition
Overcast @ 1,300 ft
Broken @ 700 ft
IFR

METAR KMZH 191632Z AUTO 04011G19KT 4SM -RA BKN007 OVC013 01/00 A2985 RMK AO2 P0002

FAA Disclaimer: The data displayed is for advisory purposes only and is not to be used for flight planning or operations.